Time;durP1;ratioP1;P1;durP2;ratioP2;P2;SDS_P1;SDS_P2;PMS_P1;PMS_P2;Temp;Humidity;BMP_temperature;BMP_pressure;BME280_temperature;BME280_humidity;BME280_pressure;Samples;Min_cycle;Max_cycle;Signal;HPM_P1;HPM_P2
2022/01/16 00:01:45;;;;;;;36.10;23.03;;;;;;;0.59;100.00;98813.94;5057825;28;20217;-70
2022/01/16 00:04:11;;;;;;;35.33;23.00;;;;;;;0.51;100.00;98826.03;5057818;28;20194;-70
2022/01/16 00:06:39;;;;;;;44.27;25.27;;;;;;;0.33;100.00;98845.03;5058265;28;20650;-70
2022/01/16 00:09:06;;;;;;;42.40;26.90;;;;;;;0.23;100.00;98836.34;5057737;28;20193;-70
2022/01/16 00:11:33;;;;;;;44.30;26.80;;;;;;;0.21;100.00;98841.88;5057689;28;20197;-70
2022/01/16 00:13:59;;;;;;;42.53;26.63;;;;;;;0.17;100.00;98858.78;5057606;28;20190;-70
2022/01/16 00:16:26;;;;;;;41.63;25.27;;;;;;;0.26;100.00;98853.56;5057222;28;20596;-70
2022/01/16 00:18:53;;;;;;;35.60;24.13;;;;;;;0.31;100.00;98851.34;5057492;28;20193;-70
2022/01/16 00:21:21;;;;;;;42.20;25.90;;;;;;;0.36;100.00;98858.81;5057444;28;20206;-70
2022/01/16 00:23:50;;;;;;;38.17;23.70;;;;;;;0.33;100.00;98865.94;5057135;28;20205;-67
2022/01/16 00:26:17;;;;;;;37.03;24.20;;;;;;;0.28;100.00;98842.97;5057273;28;20198;-67
2022/01/16 00:28:44;;;;;;;39.63;25.20;;;;;;;0.27;100.00;98838.69;5057070;28;20185;-69
2022/01/16 00:31:11;;;;;;;38.23;23.53;;;;;;;0.33;100.00;98857.28;5057298;28;20199;-70
2022/01/16 00:33:39;;;;;;;40.37;24.93;;;;;;;0.33;100.00;98845.03;5057299;28;20196;-69
2022/01/16 00:36:10;;;;;;;40.33;26.57;;;;;;;0.38;100.00;98828.94;5057207;28;20251;-67
2022/01/16 00:38:38;;;;;;;37.70;24.90;;;;;;;0.27;100.00;98839.50;5056799;28;20206;-67
2022/01/16 00:41:05;;;;;;;40.33;24.43;;;;;;;0.28;100.00;98850.81;5057018;28;20234;-68
2022/01/16 00:43:31;;;;;;;39.50;24.87;;;;;;;0.32;100.00;98861.69;5056651;28;20220;-68
2022/01/16 00:45:57;;;;;;;40.47;24.63;;;;;;;0.28;100.00;98858.66;5057548;28;20192;-69
2022/01/16 00:48:24;;;;;;;40.70;24.70;;;;;;;0.31;100.00;98843.50;5056882;28;20225;-69
2022/01/16 00:50:50;;;;;;;42.37;26.23;;;;;;;0.17;100.00;98842.13;5056951;28;20197;-69
2022/01/16 00:53:17;;;;;;;42.93;25.27;;;;;;;0.19;100.00;98836.78;5056911;28;20201;-71
2022/01/16 00:55:43;;;;;;;37.67;23.93;;;;;;;0.24;100.00;98865.94;5056856;28;20189;-72
2022/01/16 00:58:09;;;;;;;42.70;24.87;;;;;;;0.27;100.00;98851.78;5056436;28;20671;-71
2022/01/16 01:00:36;;;;;;;36.97;23.53;;;;;;;0.22;100.00;98871.31;5056017;28;20224;-72
2022/01/16 01:03:04;;;;;;;35.23;22.47;;;;;;;0.22;100.00;98868.69;5057533;28;20189;-72
2022/01/16 01:05:30;;;;;;;36.40;22.00;;;;;;;0.24;100.00;98885.06;5056342;28;20577;-72
2022/01/16 01:07:57;;;;;;;35.40;23.07;;;;;;;0.22;100.00;98873.09;5056576;28;20225;-72
2022/01/16 01:10:28;;;;;;;35.40;22.90;;;;;;;0.30;100.00;98864.59;5056651;28;20193;-69
2022/01/16 01:13:06;;;;;;;34.00;22.70;;;;;;;0.30;100.00;98869.81;5056238;28;20654;-70
2022/01/16 01:15:41;;;;;;;37.27;22.30;;;;;;;0.27;100.00;98883.16;5056192;28;20288;-69
2022/01/16 01:18:07;;;;;;;35.30;23.07;;;;;;;0.31;100.00;98874.09;5056116;28;20217;-72
2022/01/16 01:20:34;;;;;;;34.07;22.50;;;;;;;0.26;100.00;98832.63;5056397;28;20216;-71
2022/01/16 01:23:01;;;;;;;35.90;23.37;;;;;;;0.32;100.00;98780.63;5056424;28;20189;-72
2022/01/16 01:25:27;;;;;;;34.70;23.03;;;;;;;0.24;100.00;98767.41;5055996;28;20189;-70
2022/01/16 01:27:54;;;;;;;36.47;22.97;;;;;;;0.21;100.00;98766.84;5055902;28;20649;-69
2022/01/16 01:30:24;;;;;;;35.27;23.53;;;;;;;0.27;100.00;98778.56;5056323;28;20193;-70
2022/01/16 01:32:52;;;;;;;35.47;22.43;;;;;;;0.19;100.00;98777.44;5056361;28;20190;-70
2022/01/16 01:35:19;;;;;;;36.63;22.37;;;;;;;0.18;100.00;98804.56;5056030;28;20190;-67
2022/01/16 01:37:46;;;;;;;34.30;22.93;;;;;;;0.18;100.00;98835.09;5056247;28;20221;-67
2022/01/16 01:40:19;;;;;;;32.07;22.33;;;;;;;0.23;100.00;98843.38;5056306;28;20197;-67
2022/01/16 01:42:50;;;;;;;32.93;21.70;;;;;;;0.22;100.00;98869.66;5056052;28;20224;-69
2022/01/16 01:51:07;;;;;;;38.17;23.23;;;;;;;0.15;100.00;98862.34;5056124;28;20164;-70
2022/01/16 01:53:34;;;;;;;35.00;22.47;;;;;;;0.17;100.00;98876.13;5056067;28;20285;-70
2022/01/16 01:56:02;;;;;;;35.37;22.73;;;;;;;0.27;100.00;98860.44;5056038;28;20192;-70
2022/01/16 01:58:29;;;;;;;39.03;24.07;;;;;;;0.22;100.00;98850.38;5055829;28;20221;-70
2022/01/16 02:00:55;;;;;;;36.50;23.03;;;;;;;0.22;100.00;98879.16;5055577;28;20674;-70
2022/01/16 02:03:27;;;;;;;35.83;21.83;;;;;;;0.26;100.00;98879.69;5056026;28;20497;-72
2022/01/16 02:05:54;;;;;;;33.63;21.33;;;;;;;0.20;100.00;98888.09;5055978;28;20197;-72
2022/01/16 02:08:20;;;;;;;37.33;22.83;;;;;;;0.15;100.00;98892.91;5056006;28;20229;-72
2022/01/16 02:10:47;;;;;;;36.33;22.17;;;;;;;0.12;100.00;98906.22;5056028;28;20209;-72
2022/01/16 02:13:21;;;;;;;38.60;23.63;;;;;;;0.11;100.00;98901.97;5056931;28;20190;-69
2022/01/16 02:32:45;;;;;;;45.53;25.60;;;;;;;-0.40;100.00;98894.19;5048918;28;20949;-70
2022/01/16 02:35:12;;;;;;;42.10;23.70;;;;;;;-0.20;100.00;98882.88;5059490;28;20471;-68
2022/01/16 02:37:38;;;;;;;37.33;22.97;;;;;;;-0.13;100.00;98884.00;5059459;28;20450;-68
2022/01/16 02:40:14;;;;;;;40.77;24.13;;;;;;;-0.20;100.00;98890.72;5059509;28;20721;-68
2022/01/16 02:42:46;;;;;;;38.90;22.70;;;;;;;-0.14;100.00;98871.06;5059009;28;20474;-67
2022/01/16 02:45:26;;;;;;;36.97;23.73;;;;;;;-0.19;100.00;98863.63;5059334;28;20838;-69
2022/01/16 02:47:53;;;;;;;39.87;23.30;;;;;;;-0.30;100.00;98861.09;5059044;28;20467;-70
2022/01/16 02:50:19;;;;;;;37.33;22.17;;;;;;;-0.30;100.00;98870.75;5059336;28;20429;-68
2022/01/16 02:52:45;;;;;;;37.30;22.40;;;;;;;-0.20;100.00;98864.59;5058884;28;20422;-67
2022/01/16 02:55:13;;;;;;;36.50;21.77;;;;;;;-0.30;100.00;98855.88;5058894;28;20874;-67
2022/01/16 02:57:40;;;;;;;35.73;22.43;;;;;;;-0.20;100.00;98856.75;5059032;28;20461;-68
2022/01/16 03:00:07;;;;;;;37.13;22.90;;;;;;;-0.24;100.00;98846.69;5059079;28;20453;-70
2022/01/16 03:02:33;;;;;;;35.33;22.27;;;;;;;-0.23;100.00;98853.56;5058927;28;20454;-69
2022/01/16 03:05:00;;;;;;;35.40;23.33;;;;;;;-0.26;100.00;98846.81;5058879;28;20434;-72
2022/01/16 03:07:27;;;;;;;37.70;22.90;;;;;;;-0.29;100.00;98844.47;5058813;28;20476;-72
2022/01/16 03:12:55;;;;;;;36.67;22.07;;;;;;;-0.24;100.00;98841.47;5051387;28;20422;-72
2022/01/16 03:15:22;;;;;;;37.77;22.17;;;;;;;-0.20;100.00;98835.00;5058752;28;20422;-71
2022/01/16 03:23:21;;;;;;;36.67;22.70;;;;;;;-0.34;100.00;98831.00;5058427;28;20386;-69
2022/01/16 03:25:47;;;;;;;42.67;24.27;;;;;;;-0.33;100.00;98834.41;5057983;28;20791;-69
2022/01/16 03:28:14;;;;;;;37.50;23.33;;;;;;;-0.30;100.00;98827.13;5058424;28;20450;-70
2022/01/16 03:30:40;;;;;;;46.70;25.30;;;;;;;-0.41;100.00;98827.25;5058563;28;20434;-69
2022/01/16 03:33:07;;;;;;;38.57;23.00;;;;;;;-0.34;100.00;98820.53;5058128;28;20895;-69
2022/01/16 03:35:33;;;;;;;37.03;22.97;;;;;;;-0.30;100.00;98819.28;5058108;28;20853;-69
2022/01/16 03:38:00;;;;;;;39.97;24.27;;;;;;;-0.23;100.00;98825.66;5058339;28;20458;-69
2022/01/16 03:40:27;;;;;;;37.97;23.57;;;;;;;-0.22;100.00;98824.69;5057993;28;20720;-70
2022/01/16 03:42:53;;;;;;;39.17;23.73;;;;;;;-0.32;100.00;98830.84;5057878;28;20500;-69
2022/01/16 03:45:19;;;;;;;39.63;23.97;;;;;;;-0.28;100.00;98822.63;5058257;28;20438;-72
2022/01/16 03:47:46;;;;;;;36.83;23.73;;;;;;;-0.18;100.00;98839.16;5058113;28;20458;-72
2022/01/16 03:50:13;;;;;;;38.17;23.43;;;;;;;-0.11;100.00;98829.81;5058134;28;20727;-72
2022/01/16 03:52:39;;;;;;;38.27;23.73;;;;;;;-0.08;100.00;98829.53;5058677;28;20419;-70
2022/01/16 03:55:07;;;;;;;41.30;24.23;;;;;;;-0.13;100.00;98841.38;5058073;28;20438;-70
2022/01/16 03:57:34;;;;;;;33.80;22.33;;;;;;;-0.11;100.00;98836.81;5057912;28;20461;-70
2022/01/16 04:00:00;;;;;;;35.83;22.83;;;;;;;-0.09;100.00;98842.75;5057625;28;20873;-70
2022/01/16 04:02:27;;;;;;;33.87;21.83;;;;;;;-0.08;100.00;98837.38;5057465;28;20956;-70
2022/01/16 04:04:53;;;;;;;32.97;21.47;;;;;;;-0.14;100.00;98847.53;5057460;28;20446;-72
2022/01/16 04:07:26;;;;;;;32.43;22.00;;;;;;;-0.08;100.00;98849.63;5057646;28;20509;-72
2022/01/16 04:09:52;;;;;;;30.33;20.70;;;;;;;-0.22;100.00;98848.22;5057599;28;20781;-72
2022/01/16 04:12:22;;;;;;;31.80;21.27;;;;;;;-0.16;100.00;98852.91;5057293;28;20437;-72
2022/01/16 04:17:45;;;;;;;31.40;19.57;;;;;;;-0.13;100.00;98852.63;4996304;28;20531;-69
2022/01/16 04:20:15;;;;;;;27.07;19.60;;;;;;;-0.18;100.00;98846.97;5042809;28;20450;-69
2022/01/16 04:22:46;;;;;;;27.57;19.43;;;;;;;-0.23;100.00;98845.72;5057418;28;20488;-69
2022/01/16 04:25:12;;;;;;;30.33;20.33;;;;;;;-0.11;100.00;98847.28;5057096;28;20433;-69
2022/01/16 04:27:39;;;;;;;28.87;20.20;;;;;;;-0.13;100.00;98847.41;5057313;28;20454;-69
2022/01/16 04:30:06;;;;;;;30.43;20.73;;;;;;;-0.14;100.00;98840.53;5057383;28;20429;-69
2022/01/16 04:32:32;;;;;;;25.77;18.93;;;;;;;-0.17;100.00;98840.78;5057277;28;20431;-72
2022/01/16 04:34:59;;;;;;;30.07;19.53;;;;;;;-0.08;100.00;98828.72;5056950;28;20869;-72
2022/01/16 04:37:25;;;;;;;27.40;20.30;;;;;;;-0.19;100.00;98820.97;5056405;28;20465;-72
2022/01/16 04:39:58;;;;;;;29.67;20.27;;;;;;;-0.21;100.00;98826.34;5056846;28;20445;-72
2022/01/16 04:45:09;;;;;;;30.30;20.27;;;;;;;-0.24;100.00;98825.78;5056753;28;20440;-69
2022/01/16 04:47:35;;;;;;;30.93;19.57;;;;;;;-0.17;100.00;98830.34;5056690;28;20457;-69
2022/01/16 04:50:02;;;;;;;31.33;20.03;;;;;;;-0.21;100.00;98828.13;5056835;28;20441;-69
2022/01/16 04:52:28;;;;;;;29.37;20.40;;;;;;;-0.19;100.00;98828.81;5056789;28;20437;-69
2022/01/16 04:54:54;;;;;;;31.17;20.07;;;;;;;-0.12;100.00;98835.19;5057164;28;20445;-72
2022/01/16 04:57:21;;;;;;;28.57;20.10;;;;;;;-0.22;100.00;98837.75;5056470;28;20228;-69
2022/01/16 04:59:47;;;;;;;28.97;20.23;;;;;;;-0.18;100.00;98840.94;5056448;28;20438;-70
2022/01/16 05:02:13;;;;;;;30.27;20.57;;;;;;;-0.08;100.00;98832.16;5056705;28;20225;-69
2022/01/16 05:04:40;;;;;;;35.13;21.47;;;;;;;-0.07;100.00;98831.22;5056823;28;20437;-67
2022/01/16 05:07:06;;;;;;;33.87;20.10;;;;;;;-0.16;100.00;98839.03;5056623;28;20457;-68
2022/01/16 05:09:32;;;;;;;33.70;20.87;;;;;;;-0.21;100.00;98834.16;5056424;28;20775;-72
2022/01/16 05:12:02;;;;;;;34.20;20.63;;;;;;;-0.18;100.00;98833.13;5056254;28;20765;-72
2022/01/16 05:17:12;;;;;;;29.20;19.63;;;;;;;-0.11;100.00;98835.06;5056239;28;20537;-72
2022/01/16 05:19:38;;;;;;;29.63;19.50;;;;;;;-0.22;100.00;98827.31;5056498;28;20208;-67
2022/01/16 05:22:06;;;;;;;31.53;20.40;;;;;;;-0.22;100.00;98834.34;5056450;28;20478;-67
2022/01/16 05:24:34;;;;;;;29.77;20.70;;;;;;;-0.20;100.00;98822.78;5056308;28;20434;-67
2022/01/16 05:27:01;;;;;;;31.57;19.53;;;;;;;-0.27;100.00;98815.63;5056288;28;20462;-68
2022/01/16 05:29:27;;;;;;;31.23;19.60;;;;;;;-0.33;100.00;98819.56;5056325;28;20457;-67
2022/01/16 05:31:53;;;;;;;31.77;20.70;;;;;;;-0.27;100.00;98820.84;5056331;28;20423;-68
2022/01/16 05:34:23;;;;;;;33.17;20.77;;;;;;;-0.31;100.00;98827.28;5056378;28;20441;-68
2022/01/16 05:36:50;;;;;;;31.10;19.60;;;;;;;-0.30;100.00;98827.13;5056177;28;20462;-67
2022/01/16 05:39:16;;;;;;;27.23;18.67;;;;;;;-0.31;100.00;98838.53;5056776;28;20418;-67
2022/01/16 05:41:42;;;;;;;28.57;18.27;;;;;;;-0.36;100.00;98834.69;5055919;28;20470;-72
2022/01/16 05:44:09;;;;;;;26.63;18.77;;;;;;;-0.38;100.00;98840.06;5056297;28;20422;-72
2022/01/16 05:46:35;;;;;;;30.97;19.17;;;;;;;-0.39;100.00;98846.25;5055810;28;20781;-71
2022/01/16 05:49:02;;;;;;;30.17;18.53;;;;;;;-0.33;100.00;98845.69;5060283;28;20748;-72
2022/01/16 05:51:28;;;;;;;28.43;18.30;;;;;;;-0.38;100.00;98849.66;5060296;28;20422;-70
2022/01/16 05:53:56;;;;;;;28.43;18.80;;;;;;;-0.35;100.00;98852.03;5060288;28;20438;-69
2022/01/16 05:56:23;;;;;;;27.67;18.17;;;;;;;-0.28;100.00;98842.69;5060220;28;20789;-72
2022/01/16 05:58:49;;;;;;;26.13;17.67;;;;;;;-0.43;100.00;98859.69;5060279;28;20434;-72
2022/01/16 06:01:16;;;;;;;25.50;18.17;;;;;;;-0.42;100.00;98853.50;5059863;28;20740;-72
2022/01/16 06:03:42;;;;;;;27.70;18.03;;;;;;;-0.49;99.98;98855.00;5059752;28;20924;-72
2022/01/16 06:06:09;;;;;;;27.63;17.73;;;;;;;-0.48;100.00;98852.25;5059738;28;20441;-72
2022/01/16 06:08:36;;;;;;;22.80;16.97;;;;;;;-0.59;99.70;98859.31;5059576;28;20545;-72
2022/01/16 06:11:03;;;;;;;28.00;18.50;;;;;;;-0.67;100.00;98867.00;5059933;28;20442;-72
2022/01/16 06:13:29;;;;;;;26.50;18.80;;;;;;;-0.58;100.00;98869.63;5059896;28;20430;-72
2022/01/16 06:15:55;;;;;;;26.07;18.30;;;;;;;-0.60;100.00;98868.94;5059802;28;20441;-72
2022/01/16 06:18:22;;;;;;;27.20;17.83;;;;;;;-0.79;100.00;98868.84;5059631;28;20453;-69
2022/01/16 06:20:49;;;;;;;23.70;17.73;;;;;;;-0.71;100.00;98879.44;5059695;28;20430;-69
2022/01/16 06:23:16;;;;;;;22.33;16.07;;;;;;;-0.72;99.57;98892.66;5059671;28;20552;-69
2022/01/16 06:25:43;;;;;;;23.70;17.53;;;;;;;-0.81;100.00;98886.41;5059786;28;20476;-69
2022/01/16 06:28:09;;;;;;;26.33;19.27;;;;;;;-0.88;100.00;98887.06;5059588;28;20454;-69
2022/01/16 06:30:36;;;;;;;28.67;18.63;;;;;;;-0.88;100.00;98890.50;5059386;28;20445;-69
2022/01/16 06:33:05;;;;;;;26.13;19.87;;;;;;;-0.81;100.00;98890.81;5059598;28;20492;-70
2022/01/16 06:35:32;;;;;;;25.13;18.87;;;;;;;-0.74;100.00;98890.16;5059545;28;20434;-70
2022/01/16 06:37:58;;;;;;;29.00;19.37;;;;;;;-0.75;100.00;98885.91;5059430;28;20456;-70
2022/01/16 06:40:24;;;;;;;25.87;17.80;;;;;;;-0.75;100.00;98895.53;5059355;28;20708;-70
2022/01/16 06:42:51;;;;;;;26.43;17.93;;;;;;;-0.81;100.00;98896.84;5058841;28;20929;-69
2022/01/16 06:45:17;;;;;;;24.77;18.30;;;;;;;-0.80;100.00;98895.88;5059344;28;20422;-70
2022/01/16 06:47:43;;;;;;;24.97;18.30;;;;;;;-0.76;99.93;98899.91;5059135;28;20463;-69
2022/01/16 06:50:10;;;;;;;24.50;17.17;;;;;;;-0.89;100.00;98904.47;5059150;28;20433;-70
2022/01/16 06:52:37;;;;;;;24.47;17.60;;;;;;;-0.94;100.00;98898.00;5058722;28;20430;-67
2022/01/16 06:55:04;;;;;;;22.87;17.20;;;;;;;-0.98;100.00;98894.00;5059171;28;20533;-68
2022/01/16 06:57:31;;;;;;;25.13;17.73;;;;;;;-1.00;100.00;98899.34;5059082;28;20454;-68
2022/01/16 06:59:57;;;;;;;22.47;17.03;;;;;;;-0.98;100.00;98910.47;5058223;28;20437;-67
2022/01/16 07:02:23;;;;;;;26.50;17.57;;;;;;;-1.07;99.68;98907.78;5058685;28;20924;-67
2022/01/16 07:04:50;;;;;;;24.43;17.77;;;;;;;-1.09;99.87;98913.13;5059000;28;20430;-68
2022/01/16 07:07:16;;;;;;;24.47;17.47;;;;;;;-1.09;100.00;98914.91;5058833;28;20460;-69
2022/01/16 07:09:43;;;;;;;24.60;17.70;;;;;;;-1.03;99.77;98936.09;5058848;28;20730;-69
2022/01/16 07:12:09;;;;;;;23.67;16.57;;;;;;;-0.99;99.81;98939.31;5058852;28;20414;-70
2022/01/16 07:14:36;;;;;;;23.03;17.20;;;;;;;-1.02;99.00;98943.00;5058482;28;20873;-67
2022/01/16 07:17:02;;;;;;;20.53;16.27;;;;;;;-1.10;99.99;98937.56;5058764;28;20461;-67
2022/01/16 07:19:29;;;;;;;22.10;16.67;;;;;;;-0.78;98.73;98942.75;5058718;28;20430;-69
2022/01/16 07:21:55;;;;;;;21.80;15.83;;;;;;;-0.94;99.33;98939.75;5058509;28;20438;-69
2022/01/16 07:24:22;;;;;;;22.57;16.30;;;;;;;-0.96;99.23;98947.72;5059086;28;20680;-70
2022/01/16 07:26:48;;;;;;;22.80;16.67;;;;;;;-0.93;99.22;98954.47;5058424;28;20450;-70
2022/01/16 07:29:15;;;;;;;23.80;16.60;;;;;;;-0.92;99.22;98950.88;5058484;28;20784;-70
2022/01/16 07:31:41;;;;;;;22.60;16.03;;;;;;;-1.03;99.11;98964.81;5058454;28;20761;-70
2022/01/16 07:34:08;;;;;;;19.27;15.07;;;;;;;-1.11;99.36;98966.41;5058140;28;20422;-69
2022/01/16 07:36:35;;;;;;;23.23;15.60;;;;;;;-1.07;99.12;98976.44;5058279;28;20450;-69
2022/01/16 07:39:03;;;;;;;20.77;14.83;;;;;;;-1.17;97.98;98964.28;5058295;28;20725;-69
2022/01/16 07:41:30;;;;;;;19.63;14.23;;;;;;;-1.15;98.28;98970.19;5058095;28;20884;-69
2022/01/16 07:43:56;;;;;;;19.80;14.33;;;;;;;-1.14;98.18;98979.69;5058538;28;20496;-69
2022/01/16 07:46:22;;;;;;;19.37;14.47;;;;;;;-1.23;98.21;98972.59;5058245;28;20415;-69
2022/01/16 07:48:49;;;;;;;20.77;14.17;;;;;;;-1.19;98.54;98964.41;5058222;28;20434;-72
2022/01/16 07:51:16;;;;;;;18.27;14.17;;;;;;;-1.27;97.26;98977.25;5058246;28;20430;-72
2022/01/16 07:53:42;;;;;;;20.40;15.30;;;;;;;-1.29;98.08;98986.13;5058211;28;20434;-72
2022/01/16 07:56:08;;;;;;;19.90;15.53;;;;;;;-1.30;99.01;98992.31;5058135;28;20423;-72
2022/01/16 07:58:36;;;;;;;21.93;15.67;;;;;;;-1.02;97.77;98992.59;5058037;28;20456;-72
2022/01/16 08:01:03;;;;;;;20.83;15.57;;;;;;;-1.06;96.98;99001.63;5057769;28;20488;-71
2022/01/16 08:03:29;;;;;;;18.47;15.20;;;;;;;-1.16;98.66;99005.06;5057966;28;20750;-72
2022/01/16 08:05:56;;;;;;;20.30;15.00;;;;;;;-1.25;98.33;99009.25;5057798;28;20440;-72
2022/01/16 08:08:22;;;;;;;22.30;16.20;;;;;;;-1.22;98.59;99019.44;5057764;28;20454;-72
2022/01/16 08:10:48;;;;;;;22.13;15.80;;;;;;;-1.26;98.66;99019.81;5056334;28;20429;-72
2022/01/16 08:13:15;;;;;;;25.97;17.20;;;;;;;-1.16;98.64;99016.34;5057667;28;20431;-67
2022/01/16 08:15:43;;;;;;;21.73;16.67;;;;;;;-1.33;98.07;99019.47;5057669;28;20438;-67
2022/01/16 08:18:10;;;;;;;23.60;15.63;;;;;;;-1.10;98.41;99023.69;5057495;28;20486;-67
2022/01/16 08:20:38;;;;;;;20.53;15.43;;;;;;;-0.88;96.43;99020.16;5056954;28;20434;-67
2022/01/16 08:23:04;;;;;;;20.60;15.37;;;;;;;-0.97;97.94;99011.31;5057422;28;20474;-67
2022/01/16 08:25:31;;;;;;;25.37;16.13;;;;;;;-0.82;97.28;99022.28;5057622;28;20433;-67
2022/01/16 08:27:58;;;;;;;23.57;16.63;;;;;;;-0.82;96.84;99022.28;5057060;28;20946;-67
2022/01/16 08:30:24;;;;;;;21.67;15.07;;;;;;;-0.55;94.63;99015.63;5057371;28;20437;-67
2022/01/16 08:32:52;;;;;;;22.13;16.07;;;;;;;-0.78;96.30;99016.69;5057302;28;20432;-68
2022/01/16 08:35:19;;;;;;;19.73;15.20;;;;;;;-0.67;95.69;99024.47;5057260;28;20430;-67
2022/01/16 08:37:45;;;;;;;23.70;16.20;;;;;;;-0.54;95.34;99021.69;5057212;28;20462;-67
2022/01/16 08:40:12;;;;;;;20.90;16.03;;;;;;;-0.44;95.74;99028.63;5057194;28;20438;-68
2022/01/16 08:42:40;;;;;;;22.90;16.23;;;;;;;-0.33;95.58;99031.19;5056701;28;20478;-68
2022/01/16 08:45:07;;;;;;;20.93;15.20;;;;;;;-0.32;94.84;99032.00;5057031;28;20434;-68
2022/01/16 08:47:34;;;;;;;20.23;14.40;;;;;;;-0.26;94.95;99029.72;5056940;28;20453;-68
2022/01/16 08:50:02;;;;;;;22.60;16.07;;;;;;;-0.43;95.66;99038.13;5056980;28;20434;-68
2022/01/16 08:52:29;;;;;;;27.60;20.13;;;;;;;-0.26;94.76;99037.53;5056955;28;20732;-69
2022/01/16 08:54:55;;;;;;;23.50;17.67;;;;;;;-0.43;95.34;99053.81;5056605;28;20437;-69
2022/01/16 08:57:21;;;;;;;23.83;17.80;;;;;;;-0.52;97.15;99051.94;5056876;28;20747;-70
2022/01/16 08:59:48;;;;;;;23.50;17.03;;;;;;;-0.40;96.01;99047.50;5057005;28;20433;-72
2022/01/16 09:02:15;;;;;;;24.13;16.70;;;;;;;-0.28;95.31;99057.75;5056410;28;20430;-72
2022/01/16 09:04:41;;;;;;;24.27;16.30;;;;;;;-0.41;95.36;99051.03;5056623;28;20418;-69
2022/01/16 09:07:08;;;;;;;22.77;16.80;;;;;;;-0.45;96.19;99058.31;5056066;28;20465;-69
2022/01/16 09:09:34;;;;;;;21.83;16.13;;;;;;;-0.47;96.31;99060.25;5056475;28;20710;-72
2022/01/16 09:12:01;;;;;;;23.40;16.27;;;;;;;-0.41;96.45;99059.72;5056619;28;20722;-72
2022/01/16 09:14:27;;;;;;;24.93;17.20;;;;;;;-0.38;96.00;99066.47;5056337;28;20883;-71
2022/01/16 09:16:53;;;;;;;23.40;15.93;;;;;;;-0.28;95.92;99065.59;5056506;28;20454;-72
2022/01/16 09:19:20;;;;;;;25.13;16.57;;;;;;;-0.19;95.16;99072.69;5056596;28;20441;-72
2022/01/16 09:21:46;;;;;;;20.77;15.63;;;;;;;-0.26;94.63;99081.97;5055895;28;20419;-72
2022/01/16 09:24:12;;;;;;;19.93;15.30;;;;;;;-0.31;94.36;99078.91;5056542;28;20467;-69
2022/01/16 09:26:39;;;;;;;23.03;16.10;;;;;;;-0.30;95.01;99077.94;5056287;28;20450;-69
2022/01/16 09:29:05;;;;;;;22.53;16.43;;;;;;;-0.22;95.47;99085.19;5056423;28;20583;-67
2022/01/16 09:31:31;;;;;;;23.93;16.40;;;;;;;-0.23;95.02;99081.72;5056410;28;20430;-68
2022/01/16 09:33:59;;;;;;;21.57;16.13;;;;;;;-0.23;95.54;99091.34;5056428;28;20430;-68
2022/01/16 09:36:26;;;;;;;21.50;15.77;;;;;;;-0.25;95.37;99082.81;5055871;28;20437;-70
2022/01/16 09:38:52;;;;;;;23.03;16.87;;;;;;;-0.12;94.99;99097.31;5055840;28;20185;-69
2022/01/16 09:41:19;;;;;;;22.90;17.10;;;;;;;-0.13;95.17;99087.84;5056216;28;20190;-70
2022/01/16 09:43:45;;;;;;;23.83;16.57;;;;;;;-0.04;95.16;99094.91;5055694;28;20478;-70
2022/01/16 09:46:13;;;;;;;23.47;15.93;;;;;;;0.06;94.07;99097.59;5056149;28;20521;-70
2022/01/16 09:48:39;;;;;;;23.30;16.90;;;;;;;0.06;93.63;99114.09;5056163;28;20435;-69
2022/01/16 09:51:06;;;;;;;25.43;17.20;;;;;;;0.13;93.18;99113.59;5056099;28;20442;-70
2022/01/16 09:53:32;;;;;;;22.03;16.60;;;;;;;0.14;94.11;99106.44;5056179;28;20437;-70
2022/01/16 09:55:59;;;;;;;24.20;17.53;;;;;;;0.09;93.60;99103.41;5056239;28;20429;-69
2022/01/16 09:58:26;;;;;;;24.30;16.50;;;;;;;-0.02;93.60;99111.31;5056165;28;20450;-70
2022/01/16 10:00:54;;;;;;;23.40;17.03;;;;;;;0.13;93.66;99114.41;5056141;28;20201;-67
2022/01/16 10:03:38;;;;;;;20.87;16.13;;;;;;;0.19;93.55;99116.53;5055949;28;20221;-67
2022/01/16 10:06:20;;;;;;;21.23;16.13;;;;;;;0.18;92.70;99120.09;5055995;28;20529;-68
2022/01/16 10:08:48;;;;;;;21.93;16.60;;;;;;;0.17;93.28;99115.81;5055861;28;20193;-68
2022/01/16 10:11:23;;;;;;;21.10;16.87;;;;;;;0.26;93.28;99129.94;5055526;28;20201;-68
2022/01/16 10:14:01;;;;;;;19.80;15.90;;;;;;;0.29;92.93;99114.81;5055561;28;20197;-72
2022/01/16 10:16:30;;;;;;;24.23;17.20;;;;;;;0.28;92.74;99113.97;5055961;28;20288;-72
2022/01/16 10:18:57;;;;;;;21.63;17.47;;;;;;;0.21;92.97;99108.56;5055897;28;20426;-72
2022/01/16 10:21:33;;;;;;;23.67;17.13;;;;;;;0.32;92.37;99105.88;5056643;28;20491;-69
2022/01/16 10:24:00;;;;;;;23.73;16.53;;;;;;;0.25;92.31;99108.16;5055349;28;20616;-69
2022/01/16 10:26:28;;;;;;;22.83;18.33;;;;;;;0.30;92.72;99099.97;5055718;28;20194;-69
2022/01/16 10:28:54;;;;;;;25.30;18.73;;;;;;;0.42;92.27;99101.50;5055555;28;20190;-69
2022/01/16 10:31:26;;;;;;;25.73;17.83;;;;;;;0.61;90.89;99101.59;5055657;28;20193;-72
2022/01/16 10:33:55;;;;;;;26.23;18.00;;;;;;;0.57;92.35;99102.81;5055639;28;20582;-70
2022/01/16 10:36:35;;;;;;;24.10;17.13;;;;;;;0.82;90.34;99105.84;5059290;28;20422;-69
2022/01/16 10:39:12;;;;;;;23.33;19.03;;;;;;;0.98;89.37;99097.47;5059144;28;20189;-70
2022/01/16 10:41:39;;;;;;;22.43;16.70;;;;;;;0.87;89.53;99094.94;5058888;28;20296;-70
2022/01/16 10:44:30;;;;;;;23.70;17.70;;;;;;;0.65;90.52;99113.47;5059010;28;20223;-69
2022/01/16 10:46:57;;;;;;;22.00;16.50;;;;;;;0.67;90.20;99112.38;5059001;28;20225;-69
2022/01/16 10:49:24;;;;;;;23.87;16.57;;;;;;;0.88;90.46;99118.38;5059072;28;20189;-72
2022/01/16 10:52:06;;;;;;;22.07;16.63;;;;;;;0.78;90.90;99122.75;5058863;28;20696;-72
2022/01/16 10:54:39;;;;;;;21.37;16.80;;;;;;;0.97;89.89;99127.22;5059565;28;20189;-72
2022/01/16 10:57:20;;;;;;;21.20;16.83;;;;;;;0.96;89.01;99141.28;5058540;28;20659;-67
2022/01/16 10:59:46;;;;;;;22.57;17.13;;;;;;;0.91;90.11;99128.59;5059404;28;20186;-67
2022/01/16 11:02:13;;;;;;;19.87;16.43;;;;;;;1.29;87.81;99131.31;5058746;28;20201;-68
2022/01/16 11:04:40;;;;;;;22.70;16.67;;;;;;;1.15;89.00;99139.56;5058694;28;20220;-68
2022/01/16 11:07:06;;;;;;;22.90;16.80;;;;;;;1.25;88.75;99136.94;5059307;28;20240;-72
2022/01/16 11:09:33;;;;;;;23.57;17.07;;;;;;;1.33;88.35;99126.63;5058767;28;20193;-67
2022/01/16 11:12:00;;;;;;;21.57;16.73;;;;;;;1.38;89.68;99127.88;5058729;28;20490;-68
2022/01/16 11:14:30;;;;;;;23.07;17.50;;;;;;;1.51;89.25;99130.25;5058795;28;20185;-68
2022/01/16 11:16:58;;;;;;;21.77;17.43;;;;;;;1.69;88.96;99131.22;5058466;28;20232;-70
2022/01/16 11:19:26;;;;;;;22.30;16.70;;;;;;;1.68;87.61;99140.06;5058475;28;20603;-67
2022/01/16 11:21:55;;;;;;;22.17;17.43;;;;;;;1.82;87.34;99137.03;5058221;28;20600;-67
2022/01/16 11:24:34;;;;;;;22.17;16.83;;;;;;;1.88;87.15;99131.22;5058461;28;20220;-70
2022/01/16 11:27:01;;;;;;;24.33;17.63;;;;;;;2.03;85.95;99135.09;5058454;28;20217;-69
2022/01/16 11:29:30;;;;;;;25.10;19.90;;;;;;;2.03;87.29;99138.53;5058391;28;20190;-70
2022/01/16 11:31:59;;;;;;;24.40;18.97;;;;;;;2.09;87.42;99137.16;5058285;28;20281;-70
2022/01/16 11:34:27;;;;;;;22.53;17.90;;;;;;;2.04;86.93;99134.13;5058353;28;20200;-70
2022/01/16 11:36:54;;;;;;;23.87;18.93;;;;;;;2.11;87.78;99137.81;5057792;28;20225;-69
2022/01/16 11:39:23;;;;;;;22.87;18.33;;;;;;;2.30;87.00;99146.50;5057766;28;20204;-69
2022/01/16 11:41:54;;;;;;;25.77;19.33;;;;;;;2.23;86.75;99148.03;5057948;28;20209;-71
2022/01/16 11:44:28;;;;;;;27.00;21.10;;;;;;;2.06;88.56;99151.38;5058316;28;20261;-70
2022/01/16 11:46:58;;;;;;;27.73;19.33;;;;;;;2.26;88.45;99147.75;5057678;28;20220;-70
2022/01/16 11:49:43;;;;;;;30.97;21.23;;;;;;;2.19;90.04;99153.69;5058017;28;20197;-71
2022/01/16 11:52:18;;;;;;;31.40;21.03;;;;;;;2.09;90.74;99152.88;5057908;28;20194;-70
2022/01/16 11:54:52;;;;;;;29.60;21.93;;;;;;;2.01;91.94;99156.22;5057749;28;20255;-70
2022/01/16 11:57:26;;;;;;;32.33;21.10;;;;;;;2.00;91.24;99145.84;5058199;28;20217;-70
2022/01/16 12:00:08;;;;;;;31.97;21.37;;;;;;;1.95;91.52;99140.19;5057509;28;20196;-70